sensor_id;sensor_type;location;lat;lon;timestamp;P1;durP1;ratioP1;P2;durP2;ratioP2
18780;SDS011;9519;51.890;8.970;2023-03-13T00:04:19;24.67;;;5.37;;
18780;SDS011;9519;51.890;8.970;2023-03-13T00:09:21;25.03;;;5.00;;
18780;SDS011;9519;51.890;8.970;2023-03-13T00:14:23;24.20;;;4.90;;
18780;SDS011;9519;51.890;8.970;2023-03-13T00:19:26;21.67;;;5.20;;
18780;SDS011;9519;51.890;8.970;2023-03-13T00:24:28;24.47;;;4.83;;
18780;SDS011;9519;51.890;8.970;2023-03-13T00:29:31;22.83;;;4.87;;
18780;SDS011;9519;51.890;8.970;2023-03-13T00:34:36;24.20;;;4.70;;
18780;SDS011;9519;51.890;8.970;2023-03-13T00:39:38;17.77;;;4.67;;
18780;SDS011;9519;51.890;8.970;2023-03-13T00:44:40;30.53;;;5.40;;
18780;SDS011;9519;51.890;8.970;2023-03-13T00:49:43;23.23;;;4.93;;
18780;SDS011;9519;51.890;8.970;2023-03-13T00:54:45;26.97;;;5.13;;
18780;SDS011;9519;51.890;8.970;2023-03-13T00:59:47;19.30;;;5.03;;
18780;SDS011;9519;51.890;8.970;2023-03-13T01:04:51;21.23;;;3.93;;
18780;SDS011;9519;51.890;8.970;2023-03-13T01:09:53;17.97;;;4.27;;
18780;SDS011;9519;51.890;8.970;2023-03-13T01:14:55;19.87;;;4.30;;
18780;SDS011;9519;51.890;8.970;2023-03-13T01:19:58;24.97;;;4.97;;
18780;SDS011;9519;51.890;8.970;2023-03-13T01:25:00;21.40;;;4.67;;
18780;SDS011;9519;51.890;8.970;2023-03-13T01:30:03;19.27;;;3.83;;
18780;SDS011;9519;51.890;8.970;2023-03-13T01:35:08;21.20;;;4.53;;
18780;SDS011;9519;51.890;8.970;2023-03-13T01:40:12;22.93;;;4.63;;
18780;SDS011;9519;51.890;8.970;2023-03-13T01:51:04;18.90;;;3.83;;
18780;SDS011;9519;51.890;8.970;2023-03-13T01:56:12;23.83;;;4.53;;
18780;SDS011;9519;51.890;8.970;2023-03-13T02:01:20;23.60;;;4.17;;
18780;SDS011;9519;51.890;8.970;2023-03-13T02:06:26;18.47;;;4.80;;
18780;SDS011;9519;51.890;8.970;2023-03-13T02:11:34;25.87;;;4.33;;
18780;SDS011;9519;51.890;8.970;2023-03-13T02:16:48;18.90;;;4.00;;
18780;SDS011;9519;51.890;8.970;2023-03-13T02:21:53;28.60;;;5.07;;
18780;SDS011;9519;51.890;8.970;2023-03-13T02:27:06;24.53;;;4.10;;
18780;SDS011;9519;51.890;8.970;2023-03-13T02:32:09;22.60;;;4.33;;
18780;SDS011;9519;51.890;8.970;2023-03-13T02:37:11;23.60;;;4.03;;
18780;SDS011;9519;51.890;8.970;2023-03-13T02:42:17;24.13;;;4.70;;
18780;SDS011;9519;51.890;8.970;2023-03-13T02:47:22;20.83;;;4.17;;
18780;SDS011;9519;51.890;8.970;2023-03-13T02:52:26;14.43;;;2.90;;
18780;SDS011;9519;51.890;8.970;2023-03-13T02:57:34;17.73;;;3.23;;
18780;SDS011;9519;51.890;8.970;2023-03-13T03:02:36;16.23;;;3.80;;
18780;SDS011;9519;51.890;8.970;2023-03-13T03:07:38;19.37;;;4.00;;
18780;SDS011;9519;51.890;8.970;2023-03-13T03:12:42;18.53;;;4.17;;
18780;SDS011;9519;51.890;8.970;2023-03-13T03:17:44;20.93;;;4.90;;
18780;SDS011;9519;51.890;8.970;2023-03-13T03:22:46;21.30;;;5.13;;
18780;SDS011;9519;51.890;8.970;2023-03-13T03:27:49;17.93;;;3.93;;
18780;SDS011;9519;51.890;8.970;2023-03-13T03:32:51;19.50;;;4.17;;
18780;SDS011;9519;51.890;8.970;2023-03-13T03:37:53;17.63;;;3.70;;
18780;SDS011;9519;51.890;8.970;2023-03-13T03:42:57;19.20;;;4.03;;
18780;SDS011;9519;51.890;8.970;2023-03-13T03:47:59;22.97;;;5.33;;
18780;SDS011;9519;51.890;8.970;2023-03-13T03:53:01;17.53;;;4.77;;
18780;SDS011;9519;51.890;8.970;2023-03-13T03:58:04;23.90;;;4.23;;
18780;SDS011;9519;51.890;8.970;2023-03-13T04:03:06;14.77;;;3.57;;
18780;SDS011;9519;51.890;8.970;2023-03-13T04:08:08;18.03;;;4.43;;
18780;SDS011;9519;51.890;8.970;2023-03-13T04:13:12;13.37;;;3.40;;
18780;SDS011;9519;51.890;8.970;2023-03-13T04:18:14;13.17;;;3.07;;
18780;SDS011;9519;51.890;8.970;2023-03-13T04:23:16;14.60;;;3.17;;
18780;SDS011;9519;51.890;8.970;2023-03-13T04:28:19;17.50;;;3.23;;
18780;SDS011;9519;51.890;8.970;2023-03-13T04:33:22;11.73;;;2.87;;
18780;SDS011;9519;51.890;8.970;2023-03-13T04:38:24;9.03;;;2.30;;
18780;SDS011;9519;51.890;8.970;2023-03-13T04:43:27;10.07;;;2.47;;
18780;SDS011;9519;51.890;8.970;2023-03-13T04:48:29;11.20;;;2.93;;
18780;SDS011;9519;51.890;8.970;2023-03-13T04:53:31;13.17;;;2.97;;
18780;SDS011;9519;51.890;8.970;2023-03-13T04:58:35;9.07;;;2.07;;
18780;SDS011;9519;51.890;8.970;2023-03-13T05:03:37;8.43;;;1.97;;
18780;SDS011;9519;51.890;8.970;2023-03-13T05:08:39;8.07;;;1.83;;
18780;SDS011;9519;51.890;8.970;2023-03-13T05:13:42;11.37;;;2.00;;
18780;SDS011;9519;51.890;8.970;2023-03-13T05:18:44;7.73;;;1.80;;
18780;SDS011;9519;51.890;8.970;2023-03-13T05:23:46;7.33;;;1.70;;
18780;SDS011;9519;51.890;8.970;2023-03-13T05:28:50;5.20;;;1.50;;
18780;SDS011;9519;51.890;8.970;2023-03-13T05:33:52;6.20;;;1.57;;
18780;SDS011;9519;51.890;8.970;2023-03-13T05:38:54;4.57;;;1.77;;
18780;SDS011;9519;51.890;8.970;2023-03-13T05:43:57;6.63;;;1.70;;
18780;SDS011;9519;51.890;8.970;2023-03-13T05:48:59;8.00;;;1.80;;
18780;SDS011;9519;51.890;8.970;2023-03-13T05:54:01;4.13;;;1.50;;
18780;SDS011;9519;51.890;8.970;2023-03-13T05:59:05;7.43;;;2.10;;
18780;SDS011;9519;51.890;8.970;2023-03-13T06:04:07;6.13;;;2.00;;
18780;SDS011;9519;51.890;8.970;2023-03-13T06:09:09;6.40;;;1.83;;
18780;SDS011;9519;51.890;8.970;2023-03-13T06:14:13;3.60;;;1.47;;
18780;SDS011;9519;51.890;8.970;2023-03-13T06:19:15;3.07;;;1.20;;
18780;SDS011;9519;51.890;8.970;2023-03-13T06:24:17;4.03;;;1.60;;
18780;SDS011;9519;51.890;8.970;2023-03-13T06:29:21;2.83;;;1.50;;
18780;SDS011;9519;51.890;8.970;2023-03-13T06:34:23;9.17;;;4.93;;
18780;SDS011;9519;51.890;8.970;2023-03-13T06:39:25;4.67;;;2.10;;
18780;SDS011;9519;51.890;8.970;2023-03-13T06:44:29;3.10;;;1.60;;
18780;SDS011;9519;51.890;8.970;2023-03-13T06:49:31;4.10;;;1.63;;
18780;SDS011;9519;51.890;8.970;2023-03-13T06:54:33;2.47;;;1.40;;
18780;SDS011;9519;51.890;8.970;2023-03-13T06:59:37;4.00;;;2.23;;
18780;SDS011;9519;51.890;8.970;2023-03-13T07:04:39;5.67;;;1.77;;
18780;SDS011;9519;51.890;8.970;2023-03-13T07:09:41;6.73;;;2.47;;
18780;SDS011;9519;51.890;8.970;2023-03-13T07:14:44;4.77;;;2.33;;
18780;SDS011;9519;51.890;8.970;2023-03-13T07:19:46;7.33;;;3.07;;
18780;SDS011;9519;51.890;8.970;2023-03-13T07:24:48;5.27;;;2.67;;
18780;SDS011;9519;51.890;8.970;2023-03-13T07:29:52;5.63;;;3.10;;
18780;SDS011;9519;51.890;8.970;2023-03-13T07:34:54;5.63;;;2.40;;
18780;SDS011;9519;51.890;8.970;2023-03-13T07:39:56;5.93;;;2.53;;
18780;SDS011;9519;51.890;8.970;2023-03-13T07:44:59;9.03;;;5.40;;
18780;SDS011;9519;51.890;8.970;2023-03-13T07:50:01;5.47;;;2.00;;
18780;SDS011;9519;51.890;8.970;2023-03-13T07:55:04;5.40;;;2.13;;
18780;SDS011;9519;51.890;8.970;2023-03-13T08:00:08;4.27;;;1.90;;
18780;SDS011;9519;51.890;8.970;2023-03-13T08:05:15;4.07;;;2.00;;
18780;SDS011;9519;51.890;8.970;2023-03-13T08:10:17;3.23;;;1.70;;
18780;SDS011;9519;51.890;8.970;2023-03-13T08:15:21;4.27;;;1.70;;
18780;SDS011;9519;51.890;8.970;2023-03-13T08:20:25;5.20;;;1.90;;
18780;SDS011;9519;51.890;8.970;2023-03-13T08:25:27;5.50;;;1.50;;
18780;SDS011;9519;51.890;8.970;2023-03-13T08:30:30;3.13;;;1.50;;
18780;SDS011;9519;51.890;8.970;2023-03-13T08:35:32;2.97;;;1.53;;
18780;SDS011;9519;51.890;8.970;2023-03-13T08:40:34;13.93;;;3.73;;
18780;SDS011;9519;51.890;8.970;2023-03-13T08:45:38;3.53;;;1.60;;
18780;SDS011;9519;51.890;8.970;2023-03-13T08:50:40;4.93;;;1.50;;
18780;SDS011;9519;51.890;8.970;2023-03-13T08:55:42;3.93;;;1.60;;
18780;SDS011;9519;51.890;8.970;2023-03-13T09:00:45;3.77;;;1.60;;
18780;SDS011;9519;51.890;8.970;2023-03-13T09:05:47;3.63;;;1.73;;
18780;SDS011;9519;51.890;8.970;2023-03-13T09:10:53;4.10;;;1.67;;
18780;SDS011;9519;51.890;8.970;2023-03-13T09:15:59;7.17;;;2.53;;
18780;SDS011;9519;51.890;8.970;2023-03-13T09:21:04;4.93;;;1.40;;
18780;SDS011;9519;51.890;8.970;2023-03-13T09:26:09;2.93;;;1.33;;
18780;SDS011;9519;51.890;8.970;2023-03-13T09:31:14;4.93;;;1.60;;
18780;SDS011;9519;51.890;8.970;2023-03-13T09:36:18;4.23;;;1.83;;
18780;SDS011;9519;51.890;8.970;2023-03-13T09:41:22;10.47;;;4.57;;
18780;SDS011;9519;51.890;8.970;2023-03-13T09:46:32;7.73;;;2.20;;
18780;SDS011;9519;51.890;8.970;2023-03-13T09:51:40;5.77;;;2.10;;
18780;SDS011;9519;51.890;8.970;2023-03-13T09:56:51;11.33;;;4.20;;
18780;SDS011;9519;51.890;8.970;2023-03-13T10:01:59;13.73;;;7.67;;
18780;SDS011;9519;51.890;8.970;2023-03-13T10:07:08;10.40;;;2.97;;
18780;SDS011;9519;51.890;8.970;2023-03-13T10:12:13;11.33;;;4.00;;
18780;SDS011;9519;51.890;8.970;2023-03-13T10:17:25;7.93;;;2.87;;
18780;SDS011;9519;51.890;8.970;2023-03-13T10:22:33;6.63;;;2.60;;
18780;SDS011;9519;51.890;8.970;2023-03-13T10:27:43;7.63;;;2.80;;
18780;SDS011;9519;51.890;8.970;2023-03-13T10:32:49;3.47;;;1.97;;
18780;SDS011;9519;51.890;8.970;2023-03-13T10:37:59;6.27;;;2.40;;
18780;SDS011;9519;51.890;8.970;2023-03-13T10:43:11;6.83;;;2.23;;
18780;SDS011;9519;51.890;8.970;2023-03-13T10:48:19;8.43;;;3.07;;
18780;SDS011;9519;51.890;8.970;2023-03-13T10:53:24;6.93;;;2.20;;
18780;SDS011;9519;51.890;8.970;2023-03-13T10:58:34;4.43;;;2.00;;
18780;SDS011;9519;51.890;8.970;2023-03-13T11:03:43;4.57;;;2.03;;
18780;SDS011;9519;51.890;8.970;2023-03-13T11:08:47;7.00;;;2.80;;
18780;SDS011;9519;51.890;8.970;2023-03-13T11:13:49;5.47;;;2.03;;
18780;SDS011;9519;51.890;8.970;2023-03-13T11:18:56;4.47;;;1.90;;
18780;SDS011;9519;51.890;8.970;2023-03-13T11:24:22;8.80;;;3.17;;
18780;SDS011;9519;51.890;8.970;2023-03-13T11:29:34;5.97;;;2.10;;
18780;SDS011;9519;51.890;8.970;2023-03-13T11:34:56;5.90;;;2.60;;
18780;SDS011;9519;51.890;8.970;2023-03-13T11:40:05;5.57;;;1.80;;
18780;SDS011;9519;51.890;8.970;2023-03-13T11:45:27;3.90;;;1.70;;
18780;SDS011;9519;51.890;8.970;2023-03-13T11:50:54;9.40;;;3.87;;
18780;SDS011;9519;51.890;8.970;2023-03-13T11:56:04;5.27;;;1.57;;
18780;SDS011;9519;51.890;8.970;2023-03-13T12:01:17;3.17;;;1.23;;
18780;SDS011;9519;51.890;8.970;2023-03-13T12:06:24;3.77;;;1.43;;
18780;SDS011;9519;51.890;8.970;2023-03-13T12:11:32;4.87;;;1.47;;
18780;SDS011;9519;51.890;8.970;2023-03-13T12:16:43;5.70;;;1.80;;
18780;SDS011;9519;51.890;8.970;2023-03-13T12:21:53;4.17;;;1.53;;
18780;SDS011;9519;51.890;8.970;2023-03-13T12:27:09;5.77;;;2.73;;
18780;SDS011;9519;51.890;8.970;2023-03-13T12:32:21;3.70;;;1.40;;
18780;SDS011;9519;51.890;8.970;2023-03-13T12:37:35;4.97;;;1.57;;
18780;SDS011;9519;51.890;8.970;2023-03-13T12:42:45;4.37;;;1.40;;
18780;SDS011;9519;51.890;8.970;2023-03-13T12:48:16;2.23;;;1.13;;
18780;SDS011;9519;51.890;8.970;2023-03-13T12:59:21;2.78;;;0.90;;
18780;SDS011;9519;51.890;8.970;2023-03-13T13:04:30;3.80;;;1.03;;
18780;SDS011;9519;51.890;8.970;2023-03-13T13:15:18;3.30;;;0.97;;
18780;SDS011;9519;51.890;8.970;2023-03-13T13:20:26;5.47;;;1.33;;
18780;SDS011;9519;51.890;8.970;2023-03-13T13:25:39;2.30;;;0.90;;
18780;SDS011;9519;51.890;8.970;2023-03-13T13:30:42;3.67;;;1.10;;
18780;SDS011;9519;51.890;8.970;2023-03-13T13:35:44;3.33;;;1.10;;
18780;SDS011;9519;51.890;8.970;2023-03-13T13:40:58;4.57;;;0.93;;
18780;SDS011;9519;51.890;8.970;2023-03-13T13:46:22;3.43;;;0.90;;
18780;SDS011;9519;51.890;8.970;2023-03-13T13:51:28;2.33;;;0.90;;
18780;SDS011;9519;51.890;8.970;2023-03-13T13:56:36;2.73;;;0.90;;
18780;SDS011;9519;51.890;8.970;2023-03-13T14:01:42;3.28;;;0.52;;
18780;SDS011;9519;51.890;8.970;2023-03-13T14:06:46;2.65;;;0.98;;
18780;SDS011;9519;51.890;8.970;2023-03-13T14:11:54;1.45;;;0.63;;
18780;SDS011;9519;51.890;8.970;2023-03-13T14:16:56;1.48;;;0.68;;
18780;SDS011;9519;51.890;8.970;2023-03-13T14:21:59;0.70;;;0.60;;
18780;SDS011;9519;51.890;8.970;2023-03-13T14:27:14;2.90;;;1.00;;
18780;SDS011;9519;51.890;8.970;2023-03-13T14:32:19;3.35;;;0.80;;
18780;SDS011;9519;51.890;8.970;2023-03-13T14:37:32;0.60;;;0.60;;
18780;SDS011;9519;51.890;8.970;2023-03-13T14:42:39;1.83;;;0.77;;
18780;SDS011;9519;51.890;8.970;2023-03-13T14:47:48;3.58;;;1.60;;
18780;SDS011;9519;51.890;8.970;2023-03-13T14:52:52;2.30;;;0.80;;
18780;SDS011;9519;51.890;8.970;2023-03-13T14:58:19;2.47;;;0.75;;
18780;SDS011;9519;51.890;8.970;2023-03-13T15:03:29;3.83;;;0.75;;
18780;SDS011;9519;51.890;8.970;2023-03-13T15:08:33;1.70;;;0.70;;
18780;SDS011;9519;51.890;8.970;2023-03-13T15:13:39;4.13;;;0.80;;
18780;SDS011;9519;51.890;8.970;2023-03-13T15:18:41;0.93;;;0.60;;
18780;SDS011;9519;51.890;8.970;2023-03-13T15:23:44;2.90;;;1.03;;
18780;SDS011;9519;51.890;8.970;2023-03-13T15:28:52;2.47;;;0.70;;
18780;SDS011;9519;51.890;8.970;2023-03-13T15:33:55;4.20;;;1.40;;
18780;SDS011;9519;51.890;8.970;2023-03-13T15:38:59;1.80;;;0.70;;
18780;SDS011;9519;51.890;8.970;2023-03-13T15:44:05;2.28;;;0.85;;
18780;SDS011;9519;51.890;8.970;2023-03-13T15:49:08;2.05;;;0.80;;
18780;SDS011;9519;51.890;8.970;2023-03-13T15:54:12;3.72;;;0.80;;
18780;SDS011;9519;51.890;8.970;2023-03-13T15:59:15;3.33;;;1.00;;
18780;SDS011;9519;51.890;8.970;2023-03-13T16:04:17;2.20;;;0.90;;
18780;SDS011;9519;51.890;8.970;2023-03-13T16:09:19;4.00;;;0.83;;
18780;SDS011;9519;51.890;8.970;2023-03-13T16:14:22;1.67;;;0.93;;
18780;SDS011;9519;51.890;8.970;2023-03-13T16:19:25;2.53;;;0.87;;
18780;SDS011;9519;51.890;8.970;2023-03-13T16:24:27;1.92;;;0.98;;
18780;SDS011;9519;51.890;8.970;2023-03-13T16:29:30;2.10;;;1.00;;
18780;SDS011;9519;51.890;8.970;2023-03-13T16:34:32;2.57;;;1.00;;
18780;SDS011;9519;51.890;8.970;2023-03-13T16:39:34;2.73;;;1.20;;
18780;SDS011;9519;51.890;8.970;2023-03-13T16:44:38;2.60;;;1.10;;
18780;SDS011;9519;51.890;8.970;2023-03-13T16:49:40;2.30;;;1.10;;
18780;SDS011;9519;51.890;8.970;2023-03-13T16:54:43;2.43;;;1.13;;
18780;SDS011;9519;51.890;8.970;2023-03-13T16:59:47;2.30;;;0.90;;
18780;SDS011;9519;51.890;8.970;2023-03-13T17:04:49;1.60;;;0.90;;
18780;SDS011;9519;51.890;8.970;2023-03-13T17:09:51;2.60;;;1.03;;
18780;SDS011;9519;51.890;8.970;2023-03-13T17:14:55;2.47;;;1.20;;
18780;SDS011;9519;51.890;8.970;2023-03-13T17:19:57;3.27;;;1.03;;
18780;SDS011;9519;51.890;8.970;2023-03-13T17:24:59;1.53;;;0.83;;
18780;SDS011;9519;51.890;8.970;2023-03-13T17:30:03;1.70;;;1.00;;
18780;SDS011;9519;51.890;8.970;2023-03-13T17:35:20;2.67;;;1.20;;
18780;SDS011;9519;51.890;8.970;2023-03-13T17:40:24;4.10;;;1.20;;
18780;SDS011;9519;51.890;8.970;2023-03-13T17:45:30;3.30;;;1.20;;
18780;SDS011;9519;51.890;8.970;2023-03-13T17:50:35;3.33;;;1.30;;
18780;SDS011;9519;51.890;8.970;2023-03-13T17:55:38;2.97;;;1.07;;
18780;SDS011;9519;51.890;8.970;2023-03-13T18:00:41;5.50;;;1.70;;
18780;SDS011;9519;51.890;8.970;2023-03-13T18:05:46;2.93;;;1.23;;
18780;SDS011;9519;51.890;8.970;2023-03-13T18:10:48;2.60;;;1.40;;
18780;SDS011;9519;51.890;8.970;2023-03-13T18:15:52;2.10;;;1.30;;
18780;SDS011;9519;51.890;8.970;2023-03-13T18:20:54;5.17;;;1.40;;
18780;SDS011;9519;51.890;8.970;2023-03-13T18:25:56;2.37;;;1.37;;
18780;SDS011;9519;51.890;8.970;2023-03-13T18:30:59;5.20;;;1.83;;
18780;SDS011;9519;51.890;8.970;2023-03-13T18:36:01;5.43;;;1.70;;
18780;SDS011;9519;51.890;8.970;2023-03-13T18:41:14;4.37;;;1.40;;
18780;SDS011;9519;51.890;8.970;2023-03-13T18:46:19;3.13;;;1.37;;
18780;SDS011;9519;51.890;8.970;2023-03-13T18:51:26;4.00;;;1.57;;
18780;SDS011;9519;51.890;8.970;2023-03-13T18:56:29;4.57;;;1.60;;
18780;SDS011;9519;51.890;8.970;2023-03-13T19:01:33;4.50;;;1.13;;
18780;SDS011;9519;51.890;8.970;2023-03-13T19:06:35;4.47;;;1.50;;
18780;SDS011;9519;51.890;8.970;2023-03-13T19:11:38;3.33;;;1.47;;
18780;SDS011;9519;51.890;8.970;2023-03-13T19:16:43;3.03;;;1.50;;
18780;SDS011;9519;51.890;8.970;2023-03-13T19:21:49;3.17;;;1.43;;
18780;SDS011;9519;51.890;8.970;2023-03-13T19:26:55;2.90;;;1.40;;
18780;SDS011;9519;51.890;8.970;2023-03-13T19:31:59;3.70;;;1.40;;
18780;SDS011;9519;51.890;8.970;2023-03-13T19:37:04;4.77;;;1.40;;
18780;SDS011;9519;51.890;8.970;2023-03-13T19:42:10;4.40;;;1.53;;
18780;SDS011;9519;51.890;8.970;2023-03-13T19:47:13;2.80;;;1.30;;
18780;SDS011;9519;51.890;8.970;2023-03-13T19:52:16;3.30;;;1.20;;
18780;SDS011;9519;51.890;8.970;2023-03-13T19:57:18;3.80;;;1.60;;
18780;SDS011;9519;51.890;8.970;2023-03-13T20:02:22;2.73;;;1.23;;
18780;SDS011;9519;51.890;8.970;2023-03-13T20:07:24;4.00;;;1.37;;
18780;SDS011;9519;51.890;8.970;2023-03-13T20:12:26;3.27;;;1.40;;
18780;SDS011;9519;51.890;8.970;2023-03-13T20:17:30;3.20;;;1.33;;
18780;SDS011;9519;51.890;8.970;2023-03-13T20:22:32;3.80;;;1.20;;
18780;SDS011;9519;51.890;8.970;2023-03-13T20:27:34;4.00;;;1.50;;
18780;SDS011;9519;51.890;8.970;2023-03-13T20:32:39;4.00;;;1.50;;
18780;SDS011;9519;51.890;8.970;2023-03-13T20:37:41;5.13;;;1.50;;
18780;SDS011;9519;51.890;8.970;2023-03-13T20:42:44;5.00;;;1.27;;
18780;SDS011;9519;51.890;8.970;2023-03-13T20:47:47;5.83;;;1.50;;
18780;SDS011;9519;51.890;8.970;2023-03-13T20:52:49;5.87;;;1.57;;
18780;SDS011;9519;51.890;8.970;2023-03-13T20:57:51;3.33;;;1.40;;
18780;SDS011;9519;51.890;8.970;2023-03-13T21:02:55;4.50;;;1.63;;
18780;SDS011;9519;51.890;8.970;2023-03-13T21:07:57;7.37;;;1.60;;
18780;SDS011;9519;51.890;8.970;2023-03-13T21:12:59;5.73;;;1.63;;
18780;SDS011;9519;51.890;8.970;2023-03-13T21:18:02;5.07;;;1.20;;
18780;SDS011;9519;51.890;8.970;2023-03-13T21:23:05;5.20;;;1.77;;
18780;SDS011;9519;51.890;8.970;2023-03-13T21:28:07;5.93;;;1.70;;
18780;SDS011;9519;51.890;8.970;2023-03-13T21:33:10;6.80;;;1.83;;
18780;SDS011;9519;51.890;8.970;2023-03-13T21:38:12;5.00;;;1.50;;
18780;SDS011;9519;51.890;8.970;2023-03-13T21:43:14;4.10;;;1.50;;
18780;SDS011;9519;51.890;8.970;2023-03-13T21:48:18;7.00;;;1.70;;
18780;SDS011;9519;51.890;8.970;2023-03-13T21:53:20;6.57;;;1.83;;
18780;SDS011;9519;51.890;8.970;2023-03-13T21:58:22;4.97;;;1.40;;
18780;SDS011;9519;51.890;8.970;2023-03-13T22:03:26;6.27;;;1.63;;
18780;SDS011;9519;51.890;8.970;2023-03-13T22:08:30;8.57;;;2.00;;
18780;SDS011;9519;51.890;8.970;2023-03-13T22:13:32;6.00;;;1.73;;
18780;SDS011;9519;51.890;8.970;2023-03-13T22:18:36;6.50;;;1.90;;
18780;SDS011;9519;51.890;8.970;2023-03-13T22:23:40;5.87;;;2.10;;
18780;SDS011;9519;51.890;8.970;2023-03-13T22:28:42;6.17;;;1.73;;
18780;SDS011;9519;51.890;8.970;2023-03-13T22:33:46;8.37;;;1.77;;
18780;SDS011;9519;51.890;8.970;2023-03-13T22:38:48;4.70;;;1.30;;
18780;SDS011;9519;51.890;8.970;2023-03-13T22:43:51;4.60;;;1.60;;
18780;SDS011;9519;51.890;8.970;2023-03-13T22:48:54;3.57;;;1.20;;
18780;SDS011;9519;51.890;8.970;2023-03-13T22:53:56;7.33;;;1.73;;
18780;SDS011;9519;51.890;8.970;2023-03-13T22:58:58;6.73;;;1.67;;
18780;SDS011;9519;51.890;8.970;2023-03-13T23:04:03;7.97;;;1.90;;
18780;SDS011;9519;51.890;8.970;2023-03-13T23:09:05;4.80;;;1.50;;
18780;SDS011;9519;51.890;8.970;2023-03-13T23:14:07;5.03;;;1.60;;
18780;SDS011;9519;51.890;8.970;2023-03-13T23:19:11;7.20;;;1.50;;
18780;SDS011;9519;51.890;8.970;2023-03-13T23:24:13;10.07;;;1.60;;
18780;SDS011;9519;51.890;8.970;2023-03-13T23:29:15;5.07;;;1.67;;
18780;SDS011;9519;51.890;8.970;2023-03-13T23:34:19;6.83;;;1.40;;
18780;SDS011;9519;51.890;8.970;2023-03-13T23:39:21;5.33;;;2.17;;
18780;SDS011;9519;51.890;8.970;2023-03-13T23:44:25;5.93;;;1.43;;
18780;SDS011;9519;51.890;8.970;2023-03-13T23:49:34;6.30;;;1.60;;
18780;SDS011;9519;51.890;8.970;2023-03-13T23:54:36;5.07;;;1.50;;
18780;SDS011;9519;51.890;8.970;2023-03-13T23:59:38;5.10;;;1.47;;
